Time;durP1;ratioP1;P1;durP2;ratioP2;P2;SDS_P1;SDS_P2;PMS_P1;PMS_P2;Temp;Humidity;BMP_temperature;BMP_pressure;BME280_temperature;BME280_humidity;BME280_pressure;Samples;Min_cycle;Max_cycle;Signal;HPM_P1;HPM_P2
2023/12/16 00:02:12;;;;;;;23.98;10.23;;;;;;;3.83;100.00;99564.72;5023011;28;20409;-81
2023/12/16 00:04:40;;;;;;;21.58;9.93;;;;;;;3.83;100.00;99569.97;5021426;28;20396;-80
2023/12/16 00:07:06;;;;;;;20.58;9.32;;;;;;;3.82;100.00;99582.25;5014909;28;20758;-78
2023/12/16 00:09:32;;;;;;;20.25;8.60;;;;;;;3.83;100.00;99588.31;5013748;28;20429;-79
2023/12/16 00:11:59;;;;;;;17.17;7.72;;;;;;;3.85;100.00;99592.41;5014735;28;20417;-79
2023/12/16 00:14:25;;;;;;;24.77;10.90;;;;;;;3.86;100.00;99587.97;5013462;28;20411;-79
2023/12/16 00:16:51;;;;;;;25.35;10.15;;;;;;;3.86;100.00;99580.94;5013008;28;20896;-78
2023/12/16 00:19:18;;;;;;;24.13;9.70;;;;;;;3.85;100.00;99578.47;5015189;28;20493;-78
2023/12/16 00:21:44;;;;;;;22.20;9.18;;;;;;;3.86;100.00;99585.34;5014559;28;20409;-79
2023/12/16 00:24:11;;;;;;;22.60;10.15;;;;;;;3.87;100.00;99576.53;5014054;28;20404;-79
2023/12/16 00:26:37;;;;;;;25.90;9.77;;;;;;;3.87;100.00;99573.91;5014950;28;20424;-78
2023/12/16 00:29:03;;;;;;;21.88;9.10;;;;;;;3.86;100.00;99580.13;5012721;28;20448;-78
2023/12/16 00:31:29;;;;;;;21.45;9.65;;;;;;;3.85;100.00;99581.91;5013180;28;20431;-78
2023/12/16 00:33:55;;;;;;;19.88;8.68;;;;;;;3.84;100.00;99574.19;5012202;28;20488;-79
2023/12/16 00:36:23;;;;;;;23.25;10.10;;;;;;;3.82;100.00;99570.94;5012273;28;20401;-79
2023/12/16 00:38:49;;;;;;;26.52;10.65;;;;;;;3.78;100.00;99566.97;5012492;28;20494;-79
2023/12/16 00:41:15;;;;;;;23.60;9.38;;;;;;;3.74;100.00;99573.50;5012950;28;20868;-79
2023/12/16 00:43:41;;;;;;;25.63;9.55;;;;;;;3.70;100.00;99575.59;5012163;28;20496;-79
2023/12/16 00:46:08;;;;;;;22.00;10.18;;;;;;;3.67;100.00;99577.72;5012708;28;20405;-79
2023/12/16 00:48:34;;;;;;;23.23;10.32;;;;;;;3.66;100.00;99586.53;5012071;28;20403;-78
2023/12/16 00:51:02;;;;;;;23.20;10.65;;;;;;;3.64;100.00;99589.31;5012105;28;20882;-79
2023/12/16 00:53:29;;;;;;;23.33;10.38;;;;;;;3.63;100.00;99592.06;5014332;28;20401;-79
2023/12/16 00:55:55;;;;;;;24.17;10.37;;;;;;;3.61;100.00;99594.03;5016048;28;20447;-79
2023/12/16 00:58:21;;;;;;;24.48;10.30;;;;;;;3.59;100.00;99594.19;5015827;28;20401;-78
2023/12/16 01:00:47;;;;;;;21.23;10.30;;;;;;;3.58;100.00;99595.16;5015623;28;20401;-79
2023/12/16 01:03:13;;;;;;;22.63;9.63;;;;;;;3.58;100.00;99602.19;5015512;28;20897;-79
2023/12/16 01:05:40;;;;;;;24.17;10.10;;;;;;;3.58;100.00;99610.03;5015536;28;20916;-79
2023/12/16 01:08:06;;;;;;;25.08;10.00;;;;;;;3.57;100.00;99614.47;5016681;28;20401;-79
2023/12/16 01:10:33;;;;;;;22.40;9.10;;;;;;;3.59;100.00;99624.78;5015651;28;20408;-79
2023/12/16 01:12:59;;;;;;;21.92;9.80;;;;;;;3.59;100.00;99619.56;5015345;28;20777;-79
2023/12/16 01:15:25;;;;;;;21.95;9.38;;;;;;;3.61;100.00;99622.84;5015235;28;20404;-79
2023/12/16 01:17:52;;;;;;;21.13;9.27;;;;;;;3.63;100.00;99624.31;5015570;28;20487;-81
2023/12/16 01:20:18;;;;;;;21.65;8.75;;;;;;;3.65;100.00;99627.63;5014975;28;20392;-81
2023/12/16 01:22:44;;;;;;;24.52;9.93;;;;;;;3.67;100.00;99632.72;5015644;28;20409;-81
2023/12/16 01:25:10;;;;;;;24.70;10.80;;;;;;;3.69;100.00;99628.13;5018342;28;20481;-83
2023/12/16 01:27:38;;;;;;;23.65;9.85;;;;;;;3.70;100.00;99630.59;5018404;28;20491;-81
2023/12/16 01:30:05;;;;;;;19.80;9.63;;;;;;;3.71;100.00;99619.16;5020149;28;20455;-81
2023/12/16 01:32:31;;;;;;;20.92;9.43;;;;;;;3.73;100.00;99624.25;5028025;28;20420;-81
2023/12/16 01:34:57;;;;;;;19.23;9.13;;;;;;;3.74;100.00;99634.56;5027326;28;20412;-82
2023/12/16 01:37:26;;;;;;;20.00;8.50;;;;;;;3.76;100.00;99637.03;5026825;28;20400;-82
2023/12/16 01:39:52;;;;;;;18.27;7.95;;;;;;;3.78;100.00;99633.28;5027976;28;20408;-82
2023/12/16 01:42:18;;;;;;;16.98;8.30;;;;;;;3.80;100.00;99625.28;5025683;28;20778;-81
2023/12/16 01:44:46;;;;;;;29.65;11.07;;;;;;;3.81;100.00;99619.88;5016012;28;20400;-80
2023/12/16 01:47:12;;;;;;;28.15;11.05;;;;;;;3.81;100.00;99601.53;5016362;28;20405;-80
2023/12/16 01:49:38;;;;;;;28.15;11.15;;;;;;;3.82;100.00;99607.63;5016284;28;20397;-80
2023/12/16 01:52:06;;;;;;;25.20;10.77;;;;;;;3.82;100.00;99615.47;5015735;28;20817;-80
2023/12/16 01:54:32;;;;;;;24.45;9.70;;;;;;;3.83;100.00;99620.53;5016115;28;20442;-81
2023/12/16 01:57:00;;;;;;;19.15;9.52;;;;;;;3.83;100.00;99614.50;5016342;28;20407;-81
2023/12/16 01:59:27;;;;;;;20.75;10.00;;;;;;;3.83;100.00;99607.44;5018917;28;20909;-81
2023/12/16 02:01:55;;;;;;;24.48;10.73;;;;;;;3.84;100.00;99609.09;5019692;28;20416;-81
2023/12/16 02:04:21;;;;;;;22.85;9.80;;;;;;;3.84;100.00;99611.69;5020239;28;20447;-81
2023/12/16 02:06:48;;;;;;;17.95;8.63;;;;;;;3.85;100.00;99613.34;5026079;28;20392;-80
2023/12/16 02:09:16;;;;;;;18.33;8.35;;;;;;;3.87;100.00;99615.81;5036917;28;20432;-80
2023/12/16 02:11:42;;;;;;;17.02;7.50;;;;;;;3.88;100.00;99625.34;5045399;28;20423;-80
2023/12/16 02:14:08;;;;;;;14.43;7.28;;;;;;;3.88;100.00;99626.16;5040824;28;20447;-81
2023/12/16 02:16:36;;;;;;;17.48;7.05;;;;;;;3.89;100.00;99634.84;5023710;28;20898;-80
2023/12/16 02:19:09;;;;;;;14.55;7.07;;;;;;;3.90;100.00;99631.25;5026560;28;20399;-80
2023/12/16 02:21:35;;;;;;;18.30;8.17;;;;;;;3.89;100.00;99621.75;5026830;28;20397;-80
2023/12/16 02:24:04;;;;;;;16.40;7.88;;;;;;;3.89;100.00;99633.03;5026585;28;20399;-81
2023/12/16 02:26:30;;;;;;;17.25;8.23;;;;;;;3.88;100.00;99633.19;5018008;28;20404;-80
2023/12/16 02:28:56;;;;;;;37.20;14.65;;;;;;;3.84;100.00;99630.03;5026769;28;20723;-80
2023/12/16 02:31:22;;;;;;;31.10;11.65;;;;;;;3.83;100.00;99635.47;5023964;28;20906;-80
2023/12/16 02:33:48;;;;;;;23.65;10.63;;;;;;;3.81;100.00;99642.63;5023567;28;20932;-80
2023/12/16 02:36:14;;;;;;;22.63;10.33;;;;;;;3.79;100.00;99640.16;5023057;28;20521;-79
2023/12/16 02:38:40;;;;;;;20.48;10.13;;;;;;;3.78;100.00;99641.13;5025380;28;20399;-80
2023/12/16 02:41:08;;;;;;;21.13;9.83;;;;;;;3.78;100.00;99650.78;5027917;28;20412;-80
2023/12/16 02:43:34;;;;;;;22.00;9.73;;;;;;;3.76;100.00;99647.53;5027948;28;20395;-80
2023/12/16 02:46:00;;;;;;;24.33;11.30;;;;;;;3.73;100.00;99640.78;5023286;28;20401;-80
2023/12/16 02:48:26;;;;;;;23.97;9.97;;;;;;;3.72;100.00;99639.13;5024035;28;20400;-80
2023/12/16 02:50:52;;;;;;;21.48;9.50;;;;;;;3.70;100.00;99641.06;5025762;28;20411;-80
2023/12/16 02:53:18;;;;;;;20.05;9.15;;;;;;;3.69;100.00;99642.03;5022149;28;20900;-80
2023/12/16 02:55:44;;;;;;;20.25;9.40;;;;;;;3.67;100.00;99632.72;5022395;28;20399;-79
2023/12/16 02:58:12;;;;;;;18.95;9.43;;;;;;;3.65;100.00;99629.41;5020224;28;20778;-80
2023/12/16 03:00:38;;;;;;;21.00;9.57;;;;;;;3.62;100.00;99634.94;5018901;28;20808;-79
2023/12/16 03:03:04;;;;;;;17.00;8.55;;;;;;;3.61;100.00;99644.59;5023797;28;20408;-79
2023/12/16 03:05:30;;;;;;;18.27;7.80;;;;;;;3.61;100.00;99641.19;5021133;28;20399;-79
2023/12/16 03:07:56;;;;;;;20.17;8.98;;;;;;;3.61;100.00;99634.13;5024052;28;20406;-79
2023/12/16 03:10:22;;;;;;;20.75;10.07;;;;;;;3.62;100.00;99653.28;5021738;28;20479;-79
2023/12/16 03:12:49;;;;;;;18.35;8.55;;;;;;;3.60;100.00;99653.44;5021427;28;20514;-79
2023/12/16 03:15:16;;;;;;;16.00;8.27;;;;;;;3.61;100.00;99662.13;5022640;28;20411;-79
2023/12/16 03:17:43;;;;;;;17.98;7.55;;;;;;;3.61;100.00;99668.16;5021242;28;20868;-79
2023/12/16 03:20:10;;;;;;;13.55;6.95;;;;;;;3.62;100.00;99668.97;5020859;28;20411;-80
2023/12/16 03:22:37;;;;;;;13.82;6.60;;;;;;;3.62;100.00;99654.09;5020477;28;20527;-80
2023/12/16 03:25:03;;;;;;;14.13;7.07;;;;;;;3.64;100.00;99662.63;5022256;28;20399;-80
2023/12/16 03:27:29;;;;;;;13.30;6.85;;;;;;;3.65;100.00;99655.59;5022032;28;20435;-80
2023/12/16 03:29:55;;;;;;;13.43;6.43;;;;;;;3.65;100.00;99658.22;5023237;28;20455;-80
2023/12/16 03:32:23;;;;;;;12.98;6.85;;;;;;;3.65;100.00;99656.44;5020549;28;20818;-80
2023/12/16 03:34:49;;;;;;;17.10;7.60;;;;;;;3.64;100.00;99654.78;5023186;28;20818;-80
2023/12/16 03:37:15;;;;;;;13.70;7.20;;;;;;;3.64;100.00;99653.94;5021168;28;20396;-81
2023/12/16 03:39:42;;;;;;;14.77;7.43;;;;;;;3.63;100.00;99652.31;5020619;28;20397;-80
2023/12/16 03:42:08;;;;;;;25.70;10.48;;;;;;;3.61;100.00;99654.28;5022360;28;20406;-81
2023/12/16 03:44:34;;;;;;;22.20;10.38;;;;;;;3.60;100.00;99650.00;5023380;28;20415;-80
2023/12/16 03:47:00;;;;;;;20.17;9.25;;;;;;;3.59;100.00;99654.41;5021443;28;20411;-80
2023/12/16 03:49:28;;;;;;;17.25;8.90;;;;;;;3.62;100.00;99655.88;5018880;28;20912;-80
2023/12/16 03:51:56;;;;;;;16.55;8.02;;;;;;;3.63;100.00;99652.31;5029515;28;20430;-81
2023/12/16 03:54:22;;;;;;;20.83;8.60;;;;;;;3.63;100.00;99649.69;5029574;28;20408;-81
2023/12/16 03:56:48;;;;;;;15.75;7.75;;;;;;;3.64;100.00;99656.56;5028026;28;20404;-81
2023/12/16 03:59:14;;;;;;;15.05;7.25;;;;;;;3.64;100.00;99651.34;5022425;28;20399;-80
2023/12/16 04:01:44;;;;;;;24.23;10.13;;;;;;;3.64;100.00;99660.00;5019430;28;20407;-80
2023/12/16 04:04:10;;;;;;;18.92;9.40;;;;;;;3.64;100.00;99653.94;5016446;28;20407;-80
2023/12/16 04:06:37;;;;;;;22.43;10.40;;;;;;;3.64;100.00;99653.94;5019868;28;20403;-80
2023/12/16 04:09:03;;;;;;;21.40;10.27;;;;;;;3.65;100.00;99650.38;5021899;28;21377;-80
2023/12/16 04:11:30;;;;;;;19.92;9.77;;;;;;;3.64;100.00;99652.16;5015103;28;20427;-80
2023/12/16 04:13:56;;;;;;;19.83;9.40;;;;;;;3.65;100.00;99656.44;5021629;28;20405;-80
2023/12/16 04:16:22;;;;;;;17.00;8.60;;;;;;;3.65;100.00;99659.03;5023306;28;20400;-81
2023/12/16 04:18:48;;;;;;;16.48;8.00;;;;;;;3.66;100.00;99660.69;5017851;28;20467;-81
2023/12/16 04:21:14;;;;;;;17.17;7.93;;;;;;;3.66;100.00;99659.88;5023476;28;20395;-81
2023/12/16 04:23:42;;;;;;;14.95;7.60;;;;;;;3.66;100.00;99667.72;5024733;28;20395;-81
2023/12/16 04:26:08;;;;;;;15.73;7.20;;;;;;;3.66;100.00;99668.56;5020275;28;20496;-81
2023/12/16 04:28:34;;;;;;;15.63;7.10;;;;;;;3.66;100.00;99665.94;5023663;28;20436;-81
2023/12/16 04:31:00;;;;;;;15.00;7.47;;;;;;;3.66;100.00;99667.72;5025906;28;20418;-81
2023/12/16 04:33:26;;;;;;;14.67;6.90;;;;;;;3.66;100.00;99662.50;5021282;28;20475;-81
2023/12/16 04:35:52;;;;;;;15.10;6.68;;;;;;;3.67;100.00;99661.53;5027545;28;20391;-81
2023/12/16 04:38:19;;;;;;;12.45;6.88;;;;;;;3.66;100.00;99662.50;5025844;28;20763;-81
2023/12/16 04:40:46;;;;;;;13.77;6.60;;;;;;;3.66;100.00;99662.50;5023255;28;20404;-81
2023/12/16 04:43:12;;;;;;;16.30;7.95;;;;;;;3.66;100.00;99658.06;5026386;28;20449;-81
2023/12/16 04:45:38;;;;;;;19.77;9.20;;;;;;;3.64;100.00;99653.94;5023553;28;20454;-81
2023/12/16 04:48:05;;;;;;;15.35;7.72;;;;;;;3.64;100.00;99657.41;5023338;28;20915;-81
2023/12/16 04:50:31;;;;;;;15.60;7.40;;;;;;;3.63;100.00;99653.13;5023661;28;20401;-81
2023/12/16 04:52:57;;;;;;;14.05;6.97;;;;;;;3.64;100.00;99661.81;5026329;28;20424;-81
2023/12/16 04:55:23;;;;;;;12.07;6.43;;;;;;;3.65;100.00;99663.47;5021784;28;20405;-84
2023/12/16 04:57:51;;;;;;;11.98;6.68;;;;;;;3.65;100.00;99663.47;5029568;28;20406;-84
2023/12/16 05:00:17;;;;;;;12.32;6.70;;;;;;;3.64;100.00;99667.88;5037271;28;20414;-84
2023/12/16 05:02:43;;;;;;;13.18;6.65;;;;;;;3.64;100.00;99659.19;5036793;28;20492;-84
2023/12/16 05:05:10;;;;;;;14.15;7.25;;;;;;;3.63;100.00;99654.91;5036147;28;20411;-85
2023/12/16 05:07:37;;;;;;;12.40;6.57;;;;;;;3.63;100.00;99660.97;5030853;28;20412;-86
2023/12/16 05:10:09;;;;;;;14.00;6.97;;;;;;;3.62;100.00;99661.13;5028901;28;20391;-85
2023/12/16 05:12:36;;;;;;;15.57;7.50;;;;;;;3.61;100.00;99656.88;5029769;28;20516;-85
2023/12/16 05:15:05;;;;;;;17.40;8.57;;;;;;;3.60;100.00;99660.47;5021217;28;20399;-85
2023/12/16 05:17:31;;;;;;;22.95;10.50;;;;;;;3.59;100.00;99664.88;5025221;28;20820;-85
2023/12/16 05:19:57;;;;;;;29.65;11.75;;;;;;;3.58;100.00;99670.28;5027889;28;20730;-85
2023/12/16 05:22:23;;;;;;;31.13;13.07;;;;;;;3.57;100.00;99676.47;5026059;28;20401;-85
2023/12/16 05:24:50;;;;;;;38.45;15.05;;;;;;;3.55;100.00;99666.16;5026060;28;20405;-85
2023/12/16 05:27:16;;;;;;;35.40;14.70;;;;;;;3.54;100.00;99664.50;5025499;28;20425;-85
2023/12/16 05:29:42;;;;;;;39.78;16.92;;;;;;;3.51;100.00;99667.44;5023264;28;20395;-86
2023/12/16 05:32:09;;;;;;;38.60;14.95;;;;;;;3.48;100.00;99667.72;5029809;28;20783;-85
2023/12/16 05:34:36;;;;;;;39.10;14.95;;;;;;;3.45;100.00;99668.03;5027121;28;20441;-86
2023/12/16 05:37:02;;;;;;;33.83;13.88;;;;;;;3.42;100.00;99663.09;5024763;28;20416;-85
2023/12/16 05:39:29;;;;;;;41.15;17.05;;;;;;;3.35;100.00;99665.47;5021868;28;20961;-85
2023/12/16 05:41:55;;;;;;;35.08;15.38;;;;;;;3.32;100.00;99668.38;5025557;28;20440;-86
2023/12/16 05:44:22;;;;;;;33.30;14.23;;;;;;;3.29;100.00;99665.25;5031017;28;20758;-85
2023/12/16 05:46:48;;;;;;;45.03;16.60;;;;;;;3.27;100.00;99664.56;5020793;28;20412;-86
2023/12/16 05:49:16;;;;;;;39.00;15.30;;;;;;;3.24;100.00;99657.84;5026488;28;20412;-85
2023/12/16 05:51:42;;;;;;;39.28;15.05;;;;;;;3.24;100.00;99667.47;5025843;28;20415;-85
2023/12/16 05:54:08;;;;;;;33.72;14.50;;;;;;;3.22;100.00;99665.03;5025127;28;20417;-85
2023/12/16 05:56:35;;;;;;;43.70;16.33;;;;;;;3.20;100.00;99671.38;5029974;28;20934;-86
2023/12/16 05:59:01;;;;;;;33.45;13.93;;;;;;;3.18;100.00;99668.91;5028457;28;20417;-86
2023/12/16 06:01:27;;;;;;;42.22;15.02;;;;;;;3.17;100.00;99669.03;5026083;28;20409;-86
2023/12/16 06:03:53;;;;;;;38.67;15.55;;;;;;;3.13;100.00;99671.16;5033444;28;20397;-86
2023/12/16 06:06:20;;;;;;;45.65;17.77;;;;;;;3.10;100.00;99668.81;5034099;28;20407;-87
2023/12/16 06:08:47;;;;;;;45.78;18.38;;;;;;;3.10;100.00;99666.19;5039313;28;20448;-87
2023/12/16 06:11:13;;;;;;;45.08;17.23;;;;;;;3.09;100.00;99667.16;5039075;28;20488;-87
2023/12/16 06:13:39;;;;;;;48.92;17.77;;;;;;;3.07;100.00;99677.81;5040533;28;20428;-87
2023/12/16 06:16:09;;;;;;;45.33;15.73;;;;;;;3.06;100.00;99672.72;5025636;28;20874;-86
2023/12/16 06:18:36;;;;;;;40.90;15.30;;;;;;;3.06;100.00;99681.38;5036501;28;20399;-86
2023/12/16 06:21:03;;;;;;;36.83;14.50;;;;;;;3.07;100.00;99682.22;5026485;28;20414;-86
2023/12/16 06:23:31;;;;;;;61.50;20.38;;;;;;;3.07;100.00;99688.25;5025223;28;20400;-86
2023/12/16 06:25:57;;;;;;;42.22;16.13;;;;;;;3.08;100.00;99681.25;5035924;28;20403;-86
2023/12/16 06:28:23;;;;;;;35.07;14.27;;;;;;;3.08;100.00;99682.03;5033778;28;20481;-86
2023/12/16 06:30:49;;;;;;;29.88;12.63;;;;;;;3.07;100.00;99683.03;5024261;28;20413;-86
2023/12/16 06:33:16;;;;;;;28.65;11.73;;;;;;;3.08;100.00;99691.72;5021134;28;20429;-86
2023/12/16 06:35:42;;;;;;;23.08;10.25;;;;;;;3.07;100.00;99688.25;5028786;28;20407;-86
2023/12/16 06:38:08;;;;;;;28.25;11.77;;;;;;;3.05;100.00;99692.81;5026466;28;20961;-86
2023/12/16 06:40:35;;;;;;;25.90;10.38;;;;;;;3.06;100.00;99704.94;5026369;28;20411;-86
2023/12/16 06:43:02;;;;;;;26.58;10.23;;;;;;;3.06;100.00;99701.50;5027543;28;20564;-87
2023/12/16 06:45:31;;;;;;;26.35;9.55;;;;;;;3.06;100.00;99701.50;5029991;28;20442;-86
2023/12/16 06:47:58;;;;;;;19.92;8.80;;;;;;;3.05;100.00;99705.06;5027055;28;20436;-86
2023/12/16 06:50:24;;;;;;;24.60;9.43;;;;;;;3.03;100.00;99696.53;5034195;28;20399;-86
2023/12/16 06:52:50;;;;;;;22.30;9.63;;;;;;;3.00;100.00;99702.06;5022984;28;20428;-86
2023/12/16 06:55:16;;;;;;;23.30;9.20;;;;;;;2.99;100.00;99705.66;5016645;28;20761;-86
2023/12/16 06:57:44;;;;;;;22.77;9.73;;;;;;;2.98;100.00;99709.25;5018485;28;20518;-86
2023/12/16 07:00:11;;;;;;;25.35;10.30;;;;;;;2.97;100.00;99697.94;5025157;28;20484;-86
2023/12/16 07:02:37;;;;;;;24.38;9.88;;;;;;;2.97;100.00;99699.75;5022016;28;20903;-87
2023/12/16 07:05:04;;;;;;;24.52;9.65;;;;;;;2.98;100.00;99704.84;5022252;28;20409;-86
2023/12/16 07:07:31;;;;;;;24.80;10.55;;;;;;;2.99;100.00;99700.44;5028966;28;20436;-86
2023/12/16 07:09:57;;;;;;;26.33;11.40;;;;;;;2.98;100.00;99710.06;5013904;28;20487;-86
2023/12/16 07:12:23;;;;;;;38.60;14.80;;;;;;;2.98;100.00;99706.63;5027395;28;20411;-86
2023/12/16 07:14:51;;;;;;;42.20;15.88;;;;;;;2.98;100.00;99709.25;5025341;28;20407;-84
2023/12/16 07:17:17;;;;;;;44.72;16.08;;;;;;;3.01;100.00;99714.16;5023531;28;20395;-81
2023/12/16 07:19:43;;;;;;;40.17;15.63;;;;;;;3.03;100.00;99720.91;5022196;28;20746;-81
2023/12/16 07:22:09;;;;;;;38.38;14.40;;;;;;;3.05;100.00;99716.38;5012979;28;20409;-81
2023/12/16 07:24:35;;;;;;;42.03;14.90;;;;;;;3.08;100.00;99713.44;5013571;28;20401;-82
2023/12/16 07:27:01;;;;;;;38.85;16.25;;;;;;;3.09;100.00;99722.13;5021785;28;20426;-81
2023/12/16 07:29:27;;;;;;;48.15;18.45;;;;;;;3.13;100.00;99717.41;5021624;28;20399;-81
2023/12/16 07:31:55;;;;;;;44.45;17.60;;;;;;;3.14;100.00;99722.50;5010659;28;20455;-80
2023/12/16 07:34:21;;;;;;;44.47;17.25;;;;;;;3.17;100.00;99718.75;5015624;28;20438;-80
2023/12/16 07:36:47;;;;;;;35.67;14.88;;;;;;;3.19;100.00;99722.06;5016888;28;20432;-80
2023/12/16 07:39:14;;;;;;;30.60;12.80;;;;;;;3.21;100.00;99720.13;5015590;28;20404;-79
2023/12/16 07:41:41;;;;;;;28.55;12.75;;;;;;;3.24;100.00;99720.66;5018489;28;20516;-80
2023/12/16 07:44:07;;;;;;;25.27;11.15;;;;;;;3.27;100.00;99719.53;5016748;28;20920;-80
2023/12/16 07:46:33;;;;;;;22.67;9.95;;;;;;;3.29;100.00;99718.44;5015308;28;20805;-80
2023/12/16 07:49:00;;;;;;;20.13;8.98;;;;;;;3.34;100.00;99726.66;5015269;28;20753;-81
2023/12/16 07:51:26;;;;;;;17.85;8.57;;;;;;;3.39;100.00;99729.66;5029674;28;20533;-80
2023/12/16 07:53:54;;;;;;;15.43;7.88;;;;;;;3.42;100.00;99737.22;5024915;28;20430;-79
2023/12/16 07:56:22;;;;;;;22.00;8.65;;;;;;;3.46;100.00;99730.69;5013223;28;20396;-80
2023/12/16 07:58:48;;;;;;;18.55;8.48;;;;;;;3.49;100.00;99732.22;5012220;28;20400;-79
2023/12/16 08:01:15;;;;;;;21.05;9.15;;;;;;;3.51;100.00;99735.50;5011721;28;20403;-80
2023/12/16 08:03:41;;;;;;;16.65;8.27;;;;;;;3.53;100.00;99736.19;5015779;28;20413;-82
2023/12/16 08:06:09;;;;;;;14.70;7.35;;;;;;;3.57;100.00;99745.38;5015924;28;20393;-81
2023/12/16 08:08:35;;;;;;;14.95;7.03;;;;;;;3.60;100.00;99749.50;5015753;28;20398;-81
2023/12/16 08:11:01;;;;;;;12.77;6.55;;;;;;;3.63;100.00;99757.06;5015247;28;20876;-80
2023/12/16 08:13:28;;;;;;;12.20;6.20;;;;;;;3.66;100.00;99757.59;5015357;28;20421;-80
2023/12/16 08:15:54;;;;;;;12.48;6.68;;;;;;;3.67;100.00;99755.81;5015422;28;20407;-80
2023/12/16 08:18:20;;;;;;;13.00;6.18;;;;;;;3.70;100.00;99758.09;5016131;28;20393;-80
2023/12/16 08:20:46;;;;;;;11.25;5.78;;;;;;;3.72;100.00;99764.84;5014543;28;20408;-81
2023/12/16 08:23:13;;;;;;;10.37;5.40;;;;;;;3.75;100.00;99761.94;5014063;28;20440;-79
2023/12/16 08:25:40;;;;;;;10.23;5.60;;;;;;;3.78;100.00;99774.72;5011935;28;20920;-80
2023/12/16 08:28:06;;;;;;;10.90;5.65;;;;;;;3.81;100.00;99771.81;5015146;28;20432;-80
2023/12/16 08:30:32;;;;;;;10.85;5.45;;;;;;;3.84;100.00;99768.88;5012200;28;20422;-81
2023/12/16 08:32:58;;;;;;;8.80;5.00;;;;;;;3.87;100.00;99775.63;5009728;28;20427;-82
2023/12/16 08:35:24;;;;;;;8.63;5.30;;;;;;;3.89;100.00;99774.53;4996663;28;20398;-81
2023/12/16 08:37:51;;;;;;;8.03;4.87;;;;;;;3.93;100.00;99782.06;4997129;28;20433;-82
2023/12/16 08:40:18;;;;;;;9.55;5.22;;;;;;;3.96;100.00;99779.97;5003361;28;20490;-81
2023/12/16 08:42:44;;;;;;;8.45;5.13;;;;;;;3.99;100.00;99790.16;5011651;28;20416;-82
2023/12/16 08:45:11;;;;;;;8.73;4.82;;;;;;;4.01;100.00;99788.22;5030390;28;20520;-85
2023/12/16 08:47:37;;;;;;;6.65;4.90;;;;;;;4.05;100.00;99791.38;5021526;28;20484;-85
2023/12/16 08:55:14;;;;;;;7.30;4.80;;;;;;;4.17;100.00;99798.00;5182233;22;20452;-85
2023/12/16 08:57:42;;;;;;;9.15;5.00;;;;;;;4.19;100.00;99799.53;5033359;28;20416;-84
2023/12/16 09:02:44;;;;;;;7.50;4.80;;;;;;;4.23;100.00;99800.84;5074069;23;20480;-87
2023/12/16 09:05:10;;;;;;;6.53;4.30;;;;;;;4.25;100.00;99801.53;5114987;22;20440;-87
2023/12/16 09:07:36;;;;;;;9.32;5.72;;;;;;;4.28;100.00;99801.22;5027631;28;20412;-86
2023/12/16 09:10:03;;;;;;;7.35;5.18;;;;;;;4.31;100.00;99799.28;5031948;28;20411;-86
2023/12/16 09:12:30;;;;;;;11.32;5.80;;;;;;;4.34;100.00;99804.22;5029187;28;20508;-87
2023/12/16 09:14:58;;;;;;;10.15;5.47;;;;;;;4.38;100.00;99809.00;5027783;28;20411;-86
2023/12/16 09:17:25;;;;;;;9.05;5.40;;;;;;;4.45;100.00;99812.66;5368481;23;20464;-86
2023/12/16 09:19:51;;;;;;;5.80;4.47;;;;;;;4.51;100.00;99821.72;5031335;28;20412;-86
2023/12/16 09:22:19;;;;;;;6.93;4.30;;;;;;;4.57;100.00;99823.75;5019517;28;20415;-86
2023/12/16 09:24:46;;;;;;;6.67;4.13;;;;;;;4.65;100.00;99819.38;5020430;28;20401;-87
2023/12/16 09:27:12;;;;;;;4.85;3.65;;;;;;;4.75;100.00;99824.50;5021223;28;20456;-86
2023/12/16 09:29:38;;;;;;;4.50;3.40;;;;;;;4.85;100.00;99827.88;5081828;22;20422;-86
2023/12/16 09:32:07;;;;;;;4.40;3.63;;;;;;;4.93;100.00;99825.28;5023093;28;20429;-85
2023/12/16 09:34:33;;;;;;;3.85;3.45;;;;;;;4.99;100.00;99826.47;5021446;28;20770;-86
2023/12/16 09:36:59;;;;;;;4.00;3.25;;;;;;;5.04;100.00;99832.88;5019755;28;20586;-85
2023/12/16 09:39:25;;;;;;;4.63;3.47;;;;;;;5.09;100.00;99827.19;5018026;28;20401;-86
2023/12/16 09:41:52;;;;;;;3.95;3.30;;;;;;;5.12;100.00;99832.09;5018111;28;20766;-85
2023/12/16 09:44:20;;;;;;;3.97;3.13;;;;;;;5.17;100.00;99832.50;5034569;28;20428;-84
2023/12/16 09:46:47;;;;;;;3.60;3.30;;;;;;;5.20;100.00;99826.06;5039075;28;20388;-86
2023/12/16 09:49:16;;;;;;;3.75;3.30;;;;;;;5.24;100.00;99827.44;5036475;28;20397;-86
2023/12/16 09:51:42;;;;;;;3.70;3.30;;;;;;;5.26;100.00;99834.16;5036397;28;20416;-86
2023/12/16 09:54:09;;;;;;;4.70;3.53;;;;;;;5.31;100.00;99834.53;5033539;28;20401;-85
2023/12/16 09:56:36;;;;;;;3.80;3.40;;;;;;;5.36;100.00;99831.41;5020018;28;20415;-86
2023/12/16 09:59:03;;;;;;;3.72;3.20;;;;;;;5.43;100.00;99835.06;5021292;28;20401;-86
2023/12/16 10:01:29;;;;;;;3.83;3.40;;;;;;;5.48;100.00;99826.72;5029042;28;20393;-84
2023/12/16 10:03:58;;;;;;;3.80;3.35;;;;;;;5.52;100.00;99834.09;5028538;28;20477;-84
2023/12/16 10:06:25;;;;;;;4.68;3.30;;;;;;;5.56;100.00;99822.31;5026725;28;20459;-84
2023/12/16 10:08:52;;;;;;;3.40;3.10;;;;;;;5.61;100.00;99820.03;5032260;28;20440;-83
2023/12/16 10:11:19;;;;;;;3.33;3.03;;;;;;;5.68;100.00;99822.84;5015774;28;20413;-84
2023/12/16 10:13:55;;;;;;;3.97;3.15;;;;;;;5.74;100.00;99825.63;5015518;28;20420;-83
2023/12/16 10:16:22;;;;;;;3.22;2.80;;;;;;;5.79;100.00;99828.59;5015672;28;20401;-83
2023/12/16 10:18:50;;;;;;;3.08;2.72;;;;;;;5.81;100.00;99812.69;5015570;28;20413;-83
2023/12/16 10:21:21;;;;;;;3.58;3.00;;;;;;;5.81;100.00;99816.13;5015959;28;20992;-83
2023/12/16 10:23:49;;;;;;;3.22;2.90;;;;;;;5.86;100.00;99809.59;5016946;28;20465;-84
2023/12/16 10:26:16;;;;;;;3.58;3.10;;;;;;;5.91;100.00;99812.56;5020639;28;20459;-84
2023/12/16 10:28:46;;;;;;;3.85;2.92;;;;;;;5.98;100.00;99810.94;5021636;28;20400;-84
2023/12/16 10:31:13;;;;;;;3.63;2.95;;;;;;;6.08;100.00;99809.81;5023248;28;20415;-84
2023/12/16 10:33:39;;;;;;;3.80;2.78;;;;;;;6.16;100.00;99809.78;5022943;28;20420;-86
2023/12/16 10:36:07;;;;;;;3.33;3.03;;;;;;;6.24;100.00;99808.19;5024812;28;20400;-84
2023/12/16 10:38:33;;;;;;;3.10;2.80;;;;;;;6.33;100.00;99804.56;5023339;28;20426;-83
2023/12/16 10:41:02;;;;;;;3.30;3.00;;;;;;;6.39;100.00;99807.34;5023219;28;20718;-82
2023/12/16 10:43:29;;;;;;;3.40;3.10;;;;;;;6.47;100.00;99803.88;5025377;28;20405;-84
2023/12/16 10:45:55;;;;;;;3.28;2.97;;;;;;;6.52;100.00;99799.78;5027356;28;20409;-85
2023/12/16 10:48:24;;;;;;;3.00;2.72;;;;;;;6.56;100.00;99787.09;5031256;28;20435;-86
2023/12/16 10:50:52;;;;;;;3.35;2.58;;;;;;;6.62;100.00;99783.81;5027833;28;20416;-83
2023/12/16 10:53:24;;;;;;;3.28;2.97;;;;;;;6.72;100.00;99778.38;5027306;28;20425;-85
2023/12/16 10:55:56;;;;;;;2.70;2.30;;;;;;;6.85;100.00;99778.66;5021533;28;20450;-85
2023/12/16 10:58:29;;;;;;;3.20;2.42;;;;;;;7.01;100.00;99776.00;5018767;28;20404;-85
2023/12/16 11:01:05;;;;;;;3.72;2.47;;;;;;;7.18;100.00;99772.31;5021481;28;20453;-85
2023/12/16 11:03:36;;;;;;;7.30;2.50;;;;;;;7.34;100.00;99777.53;5017471;28;20401;-84
2023/12/16 11:06:07;;;;;;;2.73;2.30;;;;;;;7.48;100.00;99768.06;5023418;28;20906;-84
2023/12/16 11:08:34;;;;;;;3.78;2.60;;;;;;;7.55;100.00;99776.91;5032858;28;20399;-85
2023/12/16 11:11:02;;;;;;;2.45;2.22;;;;;;;7.63;100.00;99778.69;5037215;28;20400;-83
2023/12/16 11:13:32;;;;;;;2.28;2.00;;;;;;;7.67;100.00;99778.16;5027188;28;20810;-84
2023/12/16 11:16:08;;;;;;;2.25;2.05;;;;;;;7.71;100.00;99774.19;5026263;28;20397;-85
2023/12/16 11:18:36;;;;;;;3.30;2.47;;;;;;;7.74;100.00;99773.03;5010377;28;20389;-84
2023/12/16 11:21:05;;;;;;;5.20;2.70;;;;;;;7.69;100.00;99775.34;5020093;28;20425;-84
2023/12/16 11:23:32;;;;;;;5.43;3.07;;;;;;;7.61;100.00;99778.84;5021438;28;20488;-84
2023/12/16 11:26:02;;;;;;;4.10;3.03;;;;;;;7.55;100.00;99776.91;5021153;28;20424;-84
2023/12/16 11:28:30;;;;;;;4.28;2.90;;;;;;;7.54;100.00;99772.63;5019058;28;20412;-84
2023/12/16 11:30:58;;;;;;;2.83;2.58;;;;;;;7.54;100.00;99775.28;5020336;28;20463;-84